Diyarbakir, Turkey

6:40 AM EET on February 14, 2016 (GMT +0200)
Diyarbakir | | Change Station
CLOSE
Current Station
Airport
Location: Diyarbakir,
Elevation: 2221 ft
Nearby Weather Stations

Elev 2221 ft 37.88 °N, 40.18 °E | Updated 20 minutes ago

Overcast
Overcast
43 °F
Feels Like 43 °F
N
2
Wind Variable Wind from NNE

Today
High -- | Low -- °F
--% Chance of Precip.
Yesterday
High -- | Low -- °F
Precip. -- in
Pressure 30.15 in
Visibility 6.2 miles
Clouds Mostly Cloudy 3500 ft
Overcast 10000 ft
Dew Point 39 °F
Humidity 87%
Rainfall 0.00 in
Snow Depth Not available.
6:11 AM 4:56 PM
Waxing Crescent, 37% visible
METAR LTCC 140420Z 02002KT 9999 BKN035 OVC100 06/04 Q1021 NOSIG
Pressure 30.15 in
Visibility 6.2 miles
Clouds Mostly Cloudy 3500 ft
Overcast 10000 ft
Dew Point 39 °F
Humidity 87%
Rainfall 0.00 in
Snow Depth Not available.
6:11 AM 4:56 PM
Waxing Crescent, 37% visible
METAR LTCC 140420Z 02002KT 9999 BKN035 OVC100 06/04 Q1021 NOSIG

10-Day Weather Forecast

Almanac

Astronomy

Feb. 14, 2016 Rise Set
Actual Time
Civil Twilight
Nautical Twilight
Astronomical Twilight
Moon
Length of Visible Light
Length of Day
Tomorrow will be .
, % of the Moon is Illuminated

Today's Extremes

Country Highs Country Lows

Community

WunderPhotos

Upload Photos

1,892,746 photos uploaded!

WunderBlog® & News

Nearby

Air Quality

  Air Quality AQ Index Pollutant
Not available.

Snow Depth

Station Depth Elevation

Earthquake Activity

City Distance Mag. Time & Date
Minimum magnitude displayed is 2.5.

Coastal Water Temperatures

Place Temperature

Stations

Nearby Weather Stations

Station Location Temp. Windchill Dew Point Humidity Wind Precip. Elev Updated Type